Time;durP1;ratioP1;P1;durP2;ratioP2;P2;SDS_P1;SDS_P2;PMS_P1;PMS_P2;Temp;Humidity;BMP_temperature;BMP_pressure;BME280_temperature;BME280_humidity;BME280_pressure;Samples;Min_cycle;Max_cycle;Signal;HPM_P1;HPM_P2
2023/03/18 00:02:06;;;;;;;5.23;3.97;;;9.30;96.00;;;;;;5072149;28;20753;-67
2023/03/18 00:04:33;;;;;;;8.60;4.60;;;9.30;96.00;;;;;;5066367;28;20177;-68
2023/03/18 00:06:58;;;;;;;7.97;4.43;;;9.30;96.00;;;;;;5055837;28;20764;-69
2023/03/18 00:09:24;;;;;;;5.67;4.00;;;9.30;96.00;;;;;;5070898;28;20485;-69
2023/03/18 00:11:50;;;;;;;5.97;4.10;;;9.30;96.20;;;;;;5074570;28;20672;-70
2023/03/18 00:14:16;;;;;;;7.90;4.50;;;9.30;95.70;;;;;;5069344;28;20453;-68
2023/03/18 00:16:42;;;;;;;8.67;4.93;;;9.30;95.60;;;;;;5073045;28;20465;-68
2023/03/18 00:19:08;;;;;;;6.97;4.20;;;9.30;95.90;;;;;;5053372;28;20223;-67
2023/03/18 00:21:33;;;;;;;8.90;4.80;;;9.30;95.70;;;;;;5065721;28;20963;-69
2023/03/18 00:23:59;;;;;;;5.67;4.10;;;9.30;96.00;;;;;;5073251;28;20171;-67
2023/03/18 00:26:26;;;;;;;7.53;4.83;;;9.30;95.60;;;;;;5071396;28;20182;-69
2023/03/18 00:28:54;;;;;;;9.67;5.27;;;9.40;95.60;;;;;;5058914;28;20184;-67
2023/03/18 00:31:20;;;;;;;7.50;4.70;;;9.30;95.60;;;;;;5072868;28;20416;-68
2023/03/18 00:33:46;;;;;;;4.67;4.27;;;9.30;95.50;;;;;;5074170;28;20833;-68
2023/03/18 00:36:13;;;;;;;6.30;4.50;;;9.30;95.60;;;;;;5074804;28;20472;-68
2023/03/18 00:38:45;;;;;;;4.20;3.80;;;9.30;95.60;;;;;;5073906;28;20428;-68
2023/03/18 00:41:14;;;;;;;8.23;4.20;;;9.20;95.90;;;;;;5072236;28;20422;-68
2023/03/18 00:43:53;;;;;;;9.57;4.23;;;9.20;95.60;;;;;;5071791;28;20419;-68
2023/03/18 00:46:28;;;;;;;4.40;4.00;;;9.20;95.80;;;;;;5075561;28;20734;-68
2023/03/18 00:48:57;;;;;;;5.20;4.60;;;9.10;95.80;;;;;;5075985;28;20415;-69
2023/03/18 00:51:26;;;;;;;5.90;3.70;;;9.10;95.90;;;;;;5076573;28;20820;-68
2023/03/18 00:53:54;;;;;;;9.40;3.90;;;9.10;96.00;;;;;;5077438;28;20441;-68
2023/03/18 00:56:22;;;;;;;5.63;4.13;;;9.00;95.90;;;;;;5077388;28;20416;-68
2023/03/18 00:58:49;;;;;;;5.80;4.33;;;9.00;95.90;;;;;;5075797;28;20949;-69
2023/03/18 01:01:16;;;;;;;5.83;3.60;;;9.00;95.70;;;;;;5075719;28;20462;-68
2023/03/18 01:03:43;;;;;;;5.20;3.77;;;9.00;96.00;;;;;;5076413;28;20416;-70
2023/03/18 01:06:11;;;;;;;4.97;3.80;;;9.00;96.00;;;;;;5075810;28;20455;-69
2023/03/18 01:08:38;;;;;;;6.87;4.50;;;8.90;95.80;;;;;;5075146;28;20433;-68
2023/03/18 01:11:05;;;;;;;5.17;3.50;;;8.90;95.90;;;;;;5075444;28;20754;-68
2023/03/18 01:13:31;;;;;;;5.63;3.83;;;8.90;95.90;;;;;;5075537;28;20462;-69
2023/03/18 01:15:57;;;;;;;5.93;4.30;;;8.90;95.90;;;;;;5072063;28;20908;-67
2023/03/18 01:18:23;;;;;;;5.10;3.90;;;8.90;96.10;;;;;;5075282;28;20456;-67
2023/03/18 01:20:50;;;;;;;8.93;4.83;;;8.90;96.00;;;;;;5077059;28;20617;-67
2023/03/18 01:23:16;;;;;;;5.40;3.90;;;8.80;96.00;;;;;;5077687;28;20408;-69
2023/03/18 01:25:43;;;;;;;5.13;3.83;;;8.80;96.00;;;;;;5077833;28;20446;-68
2023/03/18 01:28:09;;;;;;;8.87;4.57;;;8.80;96.10;;;;;;5075841;28;20906;-69
2023/03/18 01:30:35;;;;;;;9.40;3.83;;;8.80;96.10;;;;;;5077044;28;20408;-69
2023/03/18 01:33:03;;;;;;;5.70;4.73;;;8.80;96.10;;;;;;5076732;28;21017;-70
2023/03/18 01:35:29;;;;;;;5.97;4.30;;;8.80;96.10;;;;;;5076336;28;20176;-69
2023/03/18 01:37:56;;;;;;;5.60;5.00;;;8.80;96.20;;;;;;5075493;28;20430;-68
2023/03/18 01:40:22;;;;;;;4.97;3.80;;;8.70;96.20;;;;;;5061462;28;20506;-68
2023/03/18 01:43:04;;;;;;;5.90;4.70;;;8.70;96.20;;;;;;5075380;28;20416;-68
2023/03/18 01:45:30;;;;;;;4.97;4.53;;;8.70;96.10;;;;;;5075388;28;20174;-68
2023/03/18 01:47:57;;;;;;;5.47;3.47;;;8.70;96.10;;;;;;5066982;28;20521;-67
2023/03/18 01:50:32;;;;;;;6.53;4.77;;;8.70;96.00;;;;;;5057710;28;20439;-67
2023/03/18 01:53:05;;;;;;;5.43;4.77;;;8.70;96.20;;;;;;5076429;28;20520;-69
2023/03/18 01:55:32;;;;;;;7.10;4.00;;;8.70;96.10;;;;;;5074885;28;20455;-66
2023/03/18 01:58:00;;;;;;;5.23;3.63;;;8.70;96.20;;;;;;5074804;28;20438;-69
2023/03/18 02:00:27;;;;;;;5.70;4.30;;;8.70;96.10;;;;;;5074797;28;20408;-67
2023/03/18 02:02:53;;;;;;;7.30;3.80;;;8.70;96.20;;;;;;5077824;28;20405;-67
2023/03/18 02:05:23;;;;;;;8.00;4.27;;;8.70;96.40;;;;;;5081075;28;20771;-68
2023/03/18 02:07:50;;;;;;;4.60;3.87;;;8.70;96.30;;;;;;5080326;28;20424;-68
2023/03/18 02:10:23;;;;;;;5.30;4.20;;;8.70;96.30;;;;;;5077690;28;20410;-68
2023/03/18 02:12:59;;;;;;;5.90;4.20;;;8.60;96.20;;;;;;5074454;28;20441;-68
2023/03/18 02:15:26;;;;;;;8.03;4.50;;;8.70;96.50;;;;;;5074211;28;20432;-67
2023/03/18 02:18:18;;;;;;;9.40;4.20;;;8.60;96.50;;;;;;5073970;28;20444;-68
2023/03/18 02:21:02;;;;;;;4.63;3.97;;;8.60;96.30;;;;;;5061974;28;20788;-69
2023/03/18 02:23:56;;;;;;;5.33;4.13;;;8.60;96.40;;;;;;5078447;28;20426;-68
2023/03/18 02:26:31;;;;;;;6.93;4.13;;;8.60;96.20;;;;;;5077176;28;20434;-68
2023/03/18 02:29:03;;;;;;;7.20;4.33;;;8.60;96.20;;;;;;5072660;28;20417;-68
2023/03/18 02:31:30;;;;;;;7.07;4.30;;;8.60;96.10;;;;;;5079138;28;20402;-69
2023/03/18 02:33:57;;;;;;;5.23;4.53;;;8.70;96.30;;;;;;5065193;28;20814;-68
2023/03/18 02:36:27;;;;;;;6.63;4.87;;;8.70;96.10;;;;;;5068592;28;20506;-67
2023/03/18 02:38:53;;;;;;;4.73;3.67;;;8.70;96.30;;;;;;5065975;28;20457;-68
2023/03/18 02:41:22;;;;;;;6.47;4.10;;;8.70;96.00;;;;;;5073541;28;20437;-69
2023/03/18 02:43:49;;;;;;;6.40;4.60;;;8.70;96.10;;;;;;5069388;28;20917;-67
2023/03/18 02:46:45;;;;;;;6.23;4.90;;;8.70;95.90;;;;;;5068952;28;20832;-69
2023/03/18 02:49:11;;;;;;;5.50;4.10;;;8.70;95.90;;;;;;5069431;28;20406;-69
2023/03/18 02:51:37;;;;;;;4.43;4.03;;;8.70;96.10;;;;;;5073357;28;20414;-69
2023/03/18 02:54:09;;;;;;;7.27;3.83;;;8.70;96.10;;;;;;5063552;28;20199;-69
2023/03/18 02:56:40;;;;;;;6.93;4.80;;;8.70;95.90;;;;;;5073418;28;20427;-70
2023/03/18 02:59:06;;;;;;;4.87;4.33;;;8.70;95.90;;;;;;5068113;28;20491;-69
2023/03/18 03:01:33;;;;;;;8.73;4.00;;;8.70;96.00;;;;;;5072673;28;20422;-69
2023/03/18 03:03:59;;;;;;;6.23;4.93;;;8.70;95.90;;;;;;5076314;28;20427;-67
2023/03/18 03:06:25;;;;;;;7.33;4.10;;;8.60;95.80;;;;;;5074072;28;21023;-68
2023/03/18 03:08:51;;;;;;;7.43;5.20;;;8.70;96.00;;;;;;5073107;28;20515;-68
2023/03/18 03:11:18;;;;;;;6.50;4.30;;;8.60;96.00;;;;;;5075909;28;20173;-68
2023/03/18 03:13:44;;;;;;;4.67;3.83;;;8.60;96.10;;;;;;5073973;28;20450;-68
2023/03/18 03:16:14;;;;;;;7.10;4.50;;;8.60;96.00;;;;;;5075786;28;20419;-70
2023/03/18 03:18:41;;;;;;;7.40;4.70;;;8.60;95.90;;;;;;5075163;28;20437;-68
2023/03/18 03:21:08;;;;;;;4.43;3.97;;;8.60;96.00;;;;;;5076221;28;20406;-68
2023/03/18 03:23:34;;;;;;;4.53;3.73;;;8.60;95.90;;;;;;5057539;28;20426;-67
2023/03/18 03:26:00;;;;;;;6.97;4.60;;;8.60;95.90;;;;;;5058094;28;20416;-68
2023/03/18 03:28:26;;;;;;;7.73;3.93;;;8.60;95.90;;;;;;5076650;28;20428;-69
2023/03/18 03:30:52;;;;;;;9.80;4.53;;;8.60;96.10;;;;;;5075827;28;20479;-68
2023/03/18 03:33:19;;;;;;;9.03;4.10;;;8.60;96.20;;;;;;5075979;28;20499;-69
2023/03/18 03:35:44;;;;;;;5.30;3.97;;;8.60;96.20;;;;;;5074935;28;20763;-68
2023/03/18 03:38:11;;;;;;;4.60;4.20;;;8.60;96.20;;;;;;5075623;28;20452;-69
2023/03/18 03:40:37;;;;;;;6.60;4.43;;;8.50;96.40;;;;;;5075977;28;20255;-69
2023/03/18 03:43:03;;;;;;;9.57;4.77;;;8.60;96.40;;;;;;5075250;28;20581;-69
2023/03/18 03:45:29;;;;;;;5.87;3.90;;;8.60;96.40;;;;;;5073048;28;20409;-69
2023/03/18 03:47:55;;;;;;;5.03;4.23;;;8.60;96.20;;;;;;5072987;28;20434;-68
2023/03/18 03:50:21;;;;;;;7.90;4.53;;;8.60;96.20;;;;;;5073157;28;20296;-69
2023/03/18 03:52:47;;;;;;;13.27;5.20;;;8.60;96.20;;;;;;5073030;28;20199;-68
2023/03/18 03:55:17;;;;;;;6.47;3.80;;;8.50;96.30;;;;;;5073397;28;20202;-69
2023/03/18 03:57:43;;;;;;;8.17;4.63;;;8.60;96.20;;;;;;5056048;28;20426;-69
2023/03/18 04:00:12;;;;;;;6.03;5.17;;;8.50;96.50;;;;;;5074957;28;20455;-68
2023/03/18 04:02:39;;;;;;;5.07;3.83;;;8.50;96.40;;;;;;5074892;28;20423;-68
2023/03/18 04:05:06;;;;;;;6.17;3.87;;;8.50;96.50;;;;;;5074551;28;20400;-70
2023/03/18 04:07:32;;;;;;;4.43;3.77;;;8.50;96.70;;;;;;5073693;28;20548;-67
2023/03/18 04:09:57;;;;;;;7.10;5.40;;;8.50;96.60;;;;;;5072864;28;20421;-70
2023/03/18 04:12:23;;;;;;;6.43;4.03;;;8.50;96.60;;;;;;5074618;28;20257;-70
2023/03/18 04:14:49;;;;;;;4.97;4.50;;;8.50;96.80;;;;;;5074371;28;20175;-69
2023/03/18 04:17:15;;;;;;;4.50;4.00;;;8.50;96.70;;;;;;5073321;28;20866;-69
2023/03/18 04:19:41;;;;;;;4.83;3.83;;;8.40;96.80;;;;;;5076736;22;20305;-75
2023/03/18 04:22:06;;;;;;;6.43;3.77;;;8.40;96.80;;;;;;5068001;28;20873;-75
2023/03/18 04:24:32;;;;;;;6.63;3.90;;;8.40;96.80;;;;;;5071672;28;20249;-75
2023/03/18 04:26:58;;;;;;;6.53;4.50;;;8.40;97.20;;;;;;5076309;28;20261;-75
2023/03/18 04:29:24;;;;;;;5.50;3.83;;;8.40;97.10;;;;;;5075877;28;20193;-75
2023/03/18 04:31:50;;;;;;;6.63;4.67;;;8.40;97.10;;;;;;5072906;28;20176;-75
2023/03/18 04:34:15;;;;;;;5.87;4.57;;;8.40;97.20;;;;;;5070079;28;20194;-76
2023/03/18 04:36:41;;;;;;;7.20;4.77;;;8.30;97.20;;;;;;5065327;28;20564;-77
2023/03/18 04:39:08;;;;;;;5.07;3.67;;;8.30;97.20;;;;;;5070389;28;20186;-75
2023/03/18 04:41:36;;;;;;;6.73;4.47;;;8.30;97.50;;;;;;5069936;28;20202;-76
2023/03/18 04:44:02;;;;;;;7.70;3.80;;;8.30;97.20;;;;;;5058012;28;20423;-75
2023/03/18 04:46:28;;;;;;;14.30;4.33;;;8.30;97.10;;;;;;5070152;28;20409;-75
2023/03/18 04:48:55;;;;;;;4.80;4.30;;;8.30;97.20;;;;;;5069891;28;20466;-76
2023/03/18 04:51:20;;;;;;;5.33;3.60;;;8.30;97.40;;;;;;5070270;28;20475;-76
2023/03/18 04:53:46;;;;;;;8.03;4.77;;;8.20;97.40;;;;;;5066201;28;20859;-75
2023/03/18 04:56:12;;;;;;;9.37;4.13;;;8.20;97.90;;;;;;5070569;28;20173;-75
2023/03/18 04:58:38;;;;;;;7.90;4.20;;;8.20;98.00;;;;;;5070403;28;20162;-76
2023/03/18 05:01:04;;;;;;;6.57;4.10;;;8.10;97.70;;;;;;5070871;28;20496;-76
2023/03/18 05:03:29;;;;;;;9.63;3.70;;;8.10;97.80;;;;;;5062311;28;20182;-76
2023/03/18 05:05:55;;;;;;;4.83;3.60;;;8.10;97.90;;;;;;5073423;28;20214;-76
2023/03/18 05:08:22;;;;;;;11.30;4.17;;;8.10;97.90;;;;;;5071435;28;20279;-75
2023/03/18 05:10:49;;;;;;;7.23;4.50;;;8.10;98.00;;;;;;5070260;28;20759;-76
2023/03/18 05:13:15;;;;;;;6.47;4.40;;;8.00;98.30;;;;;;5070170;28;20942;-75
2023/03/18 05:15:41;;;;;;;8.07;3.70;;;8.00;98.40;;;;;;5070364;28;20523;-75
2023/03/18 05:18:07;;;;;;;8.30;4.57;;;7.90;98.40;;;;;;5051817;28;20425;-75
2023/03/18 05:20:33;;;;;;;5.83;4.40;;;7.90;98.50;;;;;;5068054;28;20459;-76
2023/03/18 05:22:58;;;;;;;4.53;3.70;;;7.90;98.80;;;;;;5070006;28;20427;-75
2023/03/18 05:25:25;;;;;;;6.87;4.57;;;7.90;98.80;;;;;;5069952;28;20181;-76
2023/03/18 05:27:53;;;;;;;7.20;4.40;;;7.90;98.90;;;;;;5069810;28;20420;-76
2023/03/18 05:30:19;;;;;;;7.07;3.63;;;7.80;99.00;;;;;;5070238;28;20430;-75
2023/03/18 05:32:45;;;;;;;11.13;4.10;;;7.80;99.00;;;;;;5073900;28;20455;-75
2023/03/18 05:35:11;;;;;;;7.90;4.60;;;7.80;99.10;;;;;;5073387;28;20411;-76
2023/03/18 05:37:37;;;;;;;12.10;4.60;;;7.80;99.30;;;;;;5055512;28;20512;-76
2023/03/18 05:40:08;;;;;;;5.13;3.53;;;7.80;99.30;;;;;;5069818;28;20521;-74
2023/03/18 05:42:34;;;;;;;4.70;3.93;;;7.80;99.10;;;;;;5072941;28;20844;-76
2023/03/18 05:45:01;;;;;;;6.63;4.70;;;7.80;99.20;;;;;;5054933;28;20585;-76
2023/03/18 05:47:26;;;;;;;5.03;3.43;;;7.80;99.40;;;;;;5055223;28;20453;-76
2023/03/18 05:49:52;;;;;;;4.70;3.90;;;7.80;99.30;;;;;;5073433;28;21043;-75
2023/03/18 05:52:18;;;;;;;7.40;3.90;;;7.80;99.30;;;;;;5073605;28;20187;-75
2023/03/18 05:54:44;;;;;;;4.43;3.90;;;7.90;99.50;;;;;;5073109;28;20175;-76
2023/03/18 05:57:09;;;;;;;5.37;4.17;;;7.90;99.30;;;;;;5073229;28;20171;-76
2023/03/18 05:59:35;;;;;;;7.60;4.50;;;7.90;99.40;;;;;;5072999;28;20583;-75
2023/03/18 06:02:01;;;;;;;4.07;3.03;;;7.90;99.30;;;;;;5074317;28;20193;-76
2023/03/18 06:04:27;;;;;;;4.97;4.47;;;8.00;99.20;;;;;;5072817;28;20543;-76
2023/03/18 06:06:54;;;;;;;5.40;4.80;;;8.00;99.20;;;;;;5067557;28;20490;-76
2023/03/18 06:09:21;;;;;;;6.53;4.43;;;8.00;99.30;;;;;;5078301;28;20425;-76
2023/03/18 06:11:46;;;;;;;6.27;3.80;;;8.10;99.20;;;;;;5074468;28;20432;-76
2023/03/18 06:14:13;;;;;;;11.80;5.00;;;8.10;99.10;;;;;;5074055;28;20543;-76
2023/03/18 06:16:40;;;;;;;5.47;4.00;;;8.20;99.30;;;;;;5073274;28;20186;-76
2023/03/18 06:19:06;;;;;;;7.77;4.30;;;8.10;99.20;;;;;;5073057;28;20470;-76
2023/03/18 06:21:33;;;;;;;6.53;5.37;;;8.20;99.20;;;;;;5073455;28;20543;-75
2023/03/18 06:24:00;;;;;;;11.63;4.37;;;8.20;99.30;;;;;;5071103;28;20483;-77
2023/03/18 06:26:26;;;;;;;6.20;4.07;;;8.30;99.20;;;;;;5079073;28;20877;-77
2023/03/18 06:28:52;;;;;;;5.70;4.60;;;8.30;99.20;;;;;;5063276;28;20801;-77
2023/03/18 06:31:17;;;;;;;7.37;4.13;;;8.30;99.30;;;;;;5078056;28;20448;-75
2023/03/18 06:33:43;;;;;;;5.60;4.93;;;8.30;99.30;;;;;;5078490;28;20206;-75
2023/03/18 06:36:09;;;;;;;7.27;4.37;;;8.30;99.20;;;;;;5079191;28;20277;-76
2023/03/18 06:38:35;;;;;;;6.83;4.27;;;8.30;99.20;;;;;;5061223;28;20176;-76
2023/03/18 06:41:01;;;;;;;6.53;4.17;;;8.30;99.50;;;;;;5079333;28;20486;-75
2023/03/18 06:43:27;;;;;;;6.57;5.00;;;8.20;99.50;;;;;;5078674;28;20178;-75
2023/03/18 06:45:53;;;;;;;9.63;5.27;;;8.30;99.80;;;;;;5078369;28;20845;-75
2023/03/18 06:48:19;;;;;;;14.83;4.53;;;8.40;99.70;;;;;;5077711;28;20181;-76
2023/03/18 06:50:45;;;;;;;5.77;4.73;;;8.40;99.50;;;;;;5062086;28;20516;-76
2023/03/18 06:53:11;;;;;;;6.37;4.60;;;8.30;99.60;;;;;;5080862;28;20457;-75
2023/03/18 06:55:37;;;;;;;8.23;4.80;;;8.40;99.90;;;;;;5080391;28;20421;-75
2023/03/18 06:58:04;;;;;;;6.43;4.47;;;8.40;99.90;;;;;;5057738;28;20418;-76
2023/03/18 07:00:30;;;;;;;6.57;4.73;;;8.50;99.90;;;;;;5074825;28;20190;-76
2023/03/18 07:02:56;;;;;;;6.60;4.33;;;8.60;99.90;;;;;;5074276;28;20470;-75
2023/03/18 07:05:23;;;;;;;5.73;3.83;;;8.80;99.90;;;;;;5073472;28;20428;-75
2023/03/18 07:07:49;;;;;;;5.00;3.77;;;9.10;99.80;;;;;;5056725;28;20420;-76
2023/03/18 07:10:21;;;;;;;9.87;5.10;;;9.10;99.20;;;;;;5075513;28;20459;-75
2023/03/18 07:12:49;;;;;;;5.70;4.07;;;9.20;99.50;;;;;;5075015;28;20462;-75
2023/03/18 07:15:15;;;;;;;6.50;4.37;;;9.30;99.40;;;;;;5075896;28;20450;-75
2023/03/18 07:17:41;;;;;;;8.87;4.37;;;9.20;99.20;;;;;;5076778;28;20503;-75
2023/03/18 07:20:08;;;;;;;5.80;4.30;;;9.50;99.60;;;;;;5077189;28;20448;-76
2023/03/18 07:22:34;;;;;;;6.83;4.60;;;9.70;98.90;;;;;;5077152;28;20431;-75
2023/03/18 07:25:00;;;;;;;7.70;5.07;;;9.90;98.70;;;;;;5075752;28;20417;-75
2023/03/18 07:27:26;;;;;;;4.37;3.87;;;9.90;98.60;;;;;;5076609;28;20499;-75
2023/03/18 07:29:52;;;;;;;10.63;4.97;;;10.30;97.70;;;;;;5078156;28;20271;-76
2023/03/18 07:32:18;;;;;;;9.07;4.73;;;10.80;97.60;;;;;;5082460;28;20447;-75
2023/03/18 07:34:46;;;;;;;6.80;4.77;;;10.80;97.30;;;;;;5057948;28;20568;-76
2023/03/18 07:37:12;;;;;;;5.87;4.30;;;11.10;97.10;;;;;;5077747;28;20435;-74
2023/03/18 07:39:38;;;;;;;6.27;4.40;;;10.60;97.30;;;;;;5055623;28;20440;-75
2023/03/18 07:42:04;;;;;;;5.97;4.57;;;10.80;97.80;;;;;;5072864;28;20166;-75
2023/03/18 07:44:30;;;;;;;4.00;3.60;;;11.00;96.50;;;;;;5071561;28;20413;-74
2023/03/18 07:46:56;;;;;;;4.80;3.77;;;11.20;96.80;;;;;;5071381;28;20173;-75
2023/03/18 07:49:22;;;;;;;6.03;4.40;;;11.60;96.50;;;;;;5071170;28;20424;-74
2023/03/18 07:51:48;;;;;;;5.53;3.87;;;12.00;96.40;;;;;;5052965;28;20178;-75
2023/03/18 07:54:14;;;;;;;5.73;3.50;;;12.30;95.80;;;;;;5064303;28;21016;-74
2023/03/18 07:56:39;;;;;;;10.97;4.57;;;12.40;95.70;;;;;;5070892;28;20637;-75
2023/03/18 07:59:05;;;;;;;5.93;4.87;;;12.70;95.30;;;;;;5053060;28;20203;-76
2023/03/18 08:01:31;;;;;;;6.43;4.60;;;12.60;94.90;;;;;;5071663;28;20645;-75
2023/03/18 08:03:57;;;;;;;5.27;4.13;;;12.90;96.40;;;;;;5050296;28;20175;-75
2023/03/18 08:06:24;;;;;;;7.70;4.50;;;13.80;94.80;;;;;;5048477;28;20504;-76
2023/03/18 08:08:49;;;;;;;5.50;4.47;;;13.60;94.10;;;;;;5066694;28;20243;-75
2023/03/18 08:11:15;;;;;;;6.07;4.20;;;13.30;94.30;;;;;;5071322;28;20408;-76
2023/03/18 08:13:41;;;;;;;6.17;4.23;;;13.60;95.40;;;;;;5070851;28;20247;-76
2023/03/18 08:16:07;;;;;;;6.30;4.83;;;13.80;93.90;;;;;;5071050;28;20171;-76
2023/03/18 08:18:34;;;;;;;9.90;5.10;;;14.60;93.90;;;;;;5070770;28;20413;-77
2023/03/18 08:21:00;;;;;;;5.07;4.23;;;14.10;93.10;;;;;;5070846;28;20836;-76
2023/03/18 08:23:25;;;;;;;5.90;4.20;;;13.90;93.20;;;;;;5071231;28;20484;-76
2023/03/18 08:25:51;;;;;;;10.67;4.77;;;14.40;93.80;;;;;;5070766;28;20174;-76
2023/03/18 08:28:17;;;;;;;6.17;4.43;;;14.40;92.90;;;;;;5068340;28;20403;-75
2023/03/18 08:30:43;;;;;;;4.77;3.93;;;14.40;93.70;;;;;;5070447;28;20620;-76
2023/03/18 08:33:09;;;;;;;6.27;4.37;;;14.60;93.80;;;;;;5052790;28;20457;-76
2023/03/18 08:35:35;;;;;;;6.37;4.80;;;14.10;93.80;;;;;;5071006;28;20404;-76
2023/03/18 08:38:02;;;;;;;4.90;4.13;;;13.90;94.00;;;;;;5070336;28;20490;-76
2023/03/18 08:40:28;;;;;;;6.30;4.03;;;14.40;94.00;;;;;;5070792;28;20204;-76
2023/03/18 08:42:54;;;;;;;5.60;3.97;;;14.50;95.50;;;;;;5052570;28;20414;-75
2023/03/18 08:45:20;;;;;;;8.90;4.80;;;14.90;94.40;;;;;;5070806;28;20641;-76
2023/03/18 08:47:45;;;;;;;5.93;4.33;;;15.00;94.30;;;;;;5070061;28;20599;-75
2023/03/18 08:50:13;;;;;;;6.80;4.70;;;15.20;93.20;;;;;;5068112;28;20204;-76
2023/03/18 08:52:40;;;;;;;4.70;3.77;;;15.00;93.30;;;;;;5069782;28;20181;-75
2023/03/18 08:55:07;;;;;;;5.57;3.80;;;15.10;93.70;;;;;;5063430;28;20616;-77
2023/03/18 08:57:33;;;;;;;5.83;4.30;;;14.60;93.90;;;;;;5058903;28;20433;-78
2023/03/18 08:59:59;;;;;;;7.33;4.57;;;14.30;94.00;;;;;;5070695;28;20434;-76
2023/03/18 09:02:25;;;;;;;7.40;4.50;;;14.60;94.30;;;;;;5069704;28;20410;-75
2023/03/18 09:04:52;;;;;;;6.40;4.43;;;15.00;94.00;;;;;;5070691;28;20853;-77
2023/03/18 09:07:17;;;;;;;5.73;4.50;;;14.30;94.40;;;;;;5074571;28;20542;-77
2023/03/18 09:09:43;;;;;;;9.93;5.00;;;14.50;94.80;;;;;;5056484;28;20452;-77
2023/03/18 09:12:10;;;;;;;5.70;4.97;;;14.60;94.30;;;;;;5075798;28;20492;-77
2023/03/18 09:14:36;;;;;;;5.73;4.80;;;14.40;94.60;;;;;;5073891;28;20204;-77
2023/03/18 09:17:02;;;;;;;6.37;4.53;;;14.40;94.90;;;;;;5074561;28;20406;-76
2023/03/18 09:19:27;;;;;;;5.50;4.70;;;14.30;95.60;;;;;;5056541;28;20233;-77
2023/03/18 09:21:53;;;;;;;6.23;4.07;;;14.20;95.00;;;;;;5074890;28;20173;-76
2023/03/18 09:24:19;;;;;;;4.67;4.20;;;14.40;95.40;;;;;;5074849;28;20170;-76
2023/03/18 09:26:45;;;;;;;9.20;3.90;;;14.80;95.60;;;;;;5074411;28;20180;-76
2023/03/18 09:29:11;;;;;;;9.77;4.77;;;15.20;95.90;;;;;;5074413;28;20443;-76
2023/03/18 09:31:36;;;;;;;6.70;4.40;;;15.20;95.30;;;;;;5073812;28;20593;-76
2023/03/18 09:34:03;;;;;;;4.23;3.63;;;15.50;94.80;;;;;;5073826;28;20450;-76
2023/03/18 09:36:28;;;;;;;5.40;4.17;;;14.80;94.40;;;;;;5074339;28;20530;-77
2023/03/18 09:38:54;;;;;;;7.40;4.13;;;15.10;95.30;;;;;;5059548;28;20406;-75
2023/03/18 09:41:51;;;;;;;7.50;4.83;;;15.10;94.50;;;;;;5071546;28;20183;-76
2023/03/18 09:44:28;;;;;;;7.73;4.40;;;15.10;95.10;;;;;;5054577;28;20635;-75
2023/03/18 09:47:22;;;;;;;6.00;3.73;;;15.60;96.00;;;;;;5073979;28;20536;-75
2023/03/18 09:49:51;;;;;;;5.93;4.53;;;15.80;94.60;;;;;;5072935;28;20747;-75
2023/03/18 09:52:26;;;;;;;5.30;4.03;;;16.70;94.00;;;;;;5074579;28;20403;-75
2023/03/18 09:55:21;;;;;;;5.83;4.83;;;16.60;93.40;;;;;;5073020;28;20909;-75
2023/03/18 09:57:50;;;;;;;7.77;4.87;;;15.60;94.10;;;;;;5074349;28;20407;-75
2023/03/18 10:00:26;;;;;;;7.17;6.37;;;15.70;94.50;;;;;;5056031;28;20526;-74
2023/03/18 10:03:00;;;;;;;6.10;4.30;;;16.30;94.50;;;;;;5073045;28;20417;-75
2023/03/18 10:05:32;;;;;;;6.00;4.40;;;16.40;94.40;;;;;;5055374;28;20439;-74
2023/03/18 10:08:05;;;;;;;6.00;4.00;;;16.40;93.90;;;;;;5074767;28;20922;-75
2023/03/18 10:10:37;;;;;;;9.37;4.30;;;16.10;94.50;;;;;;5059223;28;20449;-75
2023/03/18 10:13:19;;;;;;;6.80;5.20;;;16.20;94.20;;;;;;5067598;28;20509;-75
2023/03/18 10:15:52;;;;;;;13.10;4.73;;;16.40;94.60;;;;;;5075535;28;20430;-74
2023/03/18 10:18:32;;;;;;;5.20;4.33;;;16.30;94.00;;;;;;5076447;28;20470;-76
2023/03/18 10:21:16;;;;;;;6.67;4.70;;;16.20;94.00;;;;;;5210745;22;20545;-74
2023/03/18 10:23:53;;;;;;;6.57;4.90;;;16.30;94.80;;;;;;5054912;28;20449;-72
2023/03/18 10:26:25;;;;;;;7.10;4.10;;;16.80;94.30;;;;;;5071629;28;20433;-72
2023/03/18 10:28:55;;;;;;;6.20;4.13;;;16.40;94.80;;;;;;5072613;28;20894;-71
2023/03/18 10:31:51;;;;;;;5.63;4.80;;;15.90;94.80;;;;;;5072122;28;21043;-71
2023/03/18 10:34:30;;;;;;;12.27;6.80;;;15.70;95.20;;;;;;5071851;28;20529;-72
2023/03/18 10:37:16;;;;;;;8.63;4.67;;;16.20;95.30;;;;;;5072197;28;20413;-73
2023/03/18 10:39:44;;;;;;;6.23;4.17;;;16.20;94.60;;;;;;5072158;28;20768;-72
2023/03/18 10:42:28;;;;;;;6.90;4.73;;;16.50;94.50;;;;;;5072443;28;20434;-72
2023/03/18 10:45:27;;;;;;;5.00;4.50;;;16.40;94.80;;;;;;5072358;28;20438;-72
2023/03/18 10:48:03;;;;;;;5.40;4.40;;;16.50;95.00;;;;;;5068346;28;20496;-72
2023/03/18 10:50:34;;;;;;;5.60;4.87;;;16.90;94.60;;;;;;5073930;28;20467;-71
2023/03/18 10:53:05;;;;;;;7.10;4.40;;;16.50;94.40;;;;;;5066617;28;20532;-71
2023/03/18 10:55:41;;;;;;;6.67;4.07;;;16.70;94.90;;;;;;5070095;28;20568;-71
2023/03/18 10:58:18;;;;;;;6.60;4.50;;;16.60;94.90;;;;;;5067024;28;20479;-72
2023/03/18 11:00:44;;;;;;;7.13;4.40;;;16.50;95.00;;;;;;5072129;28;20850;-71
2023/03/18 11:03:19;;;;;;;5.10;4.63;;;16.60;96.10;;;;;;5071391;28;20452;-71
2023/03/18 11:05:45;;;;;;;6.70;3.77;;;16.90;95.80;;;;;;5070368;28;20490;-72
2023/03/18 11:08:28;;;;;;;5.20;4.70;;;16.90;96.00;;;;;;5071373;28;20429;-73
2023/03/18 11:10:54;;;;;;;6.40;4.27;;;17.00;96.00;;;;;;5065462;28;20802;-72
2023/03/18 11:13:23;;;;;;;4.43;4.03;;;16.80;95.90;;;;;;5071557;28;20442;-72
2023/03/18 11:15:55;;;;;;;6.80;3.97;;;16.90;96.40;;;;;;5069662;28;20240;-73
2023/03/18 11:18:23;;;;;;;6.00;4.27;;;17.10;96.10;;;;;;5071218;28;20496;-72
2023/03/18 11:21:00;;;;;;;5.50;4.13;;;17.30;96.10;;;;;;5070218;28;20428;-71
2023/03/18 11:26:25;;;;;;;4.90;3.90;;;17.50;95.80;;;;;;5069100;28;20392;-75
2023/03/18 11:28:56;;;;;;;5.87;4.37;;;17.20;95.80;;;;;;5066563;28;20403;-74
2023/03/18 11:31:22;;;;;;;5.17;4.30;;;17.00;96.40;;;;;;5066618;28;20463;-71
2023/03/18 11:33:48;;;;;;;9.63;6.40;;;17.30;96.30;;;;;;5071200;28;20552;-71
2023/03/18 11:36:21;;;;;;;7.37;5.60;;;17.60;96.40;;;;;;5053472;28;20181;-71
2023/03/18 11:39:05;;;;;;;4.37;3.97;;;17.80;97.00;;;;;;5070958;28;20402;-73
2023/03/18 11:41:31;;;;;;;7.03;5.83;;;17.40;96.20;;;;;;5070953;28;20875;-71
2023/03/18 11:44:06;;;;;;;8.20;4.30;;;17.50;97.50;;;;;;5072464;28;20445;-71
2023/03/18 11:46:44;;;;;;;4.53;3.63;;;17.20;97.50;;;;;;5070903;28;20174;-72
2023/03/18 11:49:21;;;;;;;7.90;3.50;;;17.30;97.40;;;;;;5063998;28;20501;-71
2023/03/18 11:52:08;;;;;;;12.43;4.80;;;17.40;97.40;;;;;;5070706;28;20788;-72
2023/03/18 11:54:50;;;;;;;5.20;3.90;;;17.30;97.80;;;;;;5070677;28;20456;-72
2023/03/18 11:57:26;;;;;;;4.47;3.50;;;17.30;97.30;;;;;;5064654;28;20899;-72
2023/03/18 12:00:04;;;;;;;4.30;3.70;;;17.40;97.90;;;;;;5070534;28;20685;-71
2023/03/18 12:02:50;;;;;;;4.50;4.00;;;17.30;98.00;;;;;;5056735;28;20451;-72
2023/03/18 12:05:35;;;;;;;5.90;4.03;;;17.80;97.70;;;;;;5067991;28;20914;-72
2023/03/18 12:08:13;;;;;;;5.00;3.40;;;18.20;97.70;;;;;;5062917;28;20407;-73
2023/03/18 12:10:56;;;;;;;4.70;3.63;;;17.90;97.70;;;;;;5059645;28;20455;-72
2023/03/18 12:13:24;;;;;;;8.77;3.70;;;18.00;97.80;;;;;;5070346;28;20962;-71
2023/03/18 12:16:00;;;;;;;5.47;4.30;;;18.10;97.40;;;;;;5071150;28;20546;-72
2023/03/18 12:19:08;;;;;;;8.67;5.07;;;18.30;97.80;;;;;;5070163;28;20393;-72
2023/03/18 12:21:39;;;;;;;5.83;3.50;;;18.00;98.00;;;;;;5066840;28;20929;-72
2023/03/18 12:24:23;;;;;;;8.43;4.20;;;17.80;98.30;;;;;;5070258;28;20402;-71
2023/03/18 12:27:07;;;;;;;5.50;3.33;;;17.90;98.50;;;;;;5070124;28;20432;-72
2023/03/18 12:30:08;;;;;;;2.60;2.40;;;17.80;99.30;;;;;;5066531;28;20409;-71
2023/03/18 12:32:52;;;;;;;4.67;3.00;;;17.60;99.60;;;;;;5066515;28;20771;-72
2023/03/18 12:35:59;;;;;;;3.80;3.00;;;17.60;99.90;;;;;;5070389;28;20424;-72
2023/03/18 12:38:47;;;;;;;3.73;3.40;;;17.90;99.90;;;;;;5052751;28;20462;-72
2023/03/18 12:41:13;;;;;;;3.80;3.17;;;18.00;99.90;;;;;;5068410;28;20426;-72
2023/03/18 12:43:46;;;;;;;4.97;2.90;;;18.10;99.90;;;;;;5074759;28;20500;-72
2023/03/18 12:46:31;;;;;;;3.80;3.17;;;18.00;99.90;;;;;;5058028;28;20295;-71
2023/03/18 12:49:05;;;;;;;4.67;3.30;;;18.10;99.90;;;;;;5074958;28;20412;-71
2023/03/18 12:51:42;;;;;;;5.23;3.47;;;18.10;99.90;;;;;;5074733;28;20431;-71
2023/03/18 12:54:19;;;;;;;5.00;3.57;;;18.20;99.90;;;;;;5067855;28;20444;-72
2023/03/18 12:56:51;;;;;;;8.90;3.60;;;17.90;99.90;;;;;;5056835;28;20481;-74
2023/03/18 12:59:26;;;;;;;3.10;2.80;;;18.00;99.90;;;;;;5074753;28;20404;-72
2023/03/18 13:02:33;;;;;;;6.17;3.00;;;18.20;99.90;;;;;;5056418;28;20454;-72
2023/03/18 13:05:04;;;;;;;3.13;2.83;;;18.10;99.90;;;;;;5044381;28;20418;-72
2023/03/18 13:07:37;;;;;;;10.90;3.03;;;18.10;99.90;;;;;;5074563;28;20499;-71
2023/03/18 13:10:12;;;;;;;5.13;3.20;;;18.20;99.90;;;;;;5069641;28;20419;-72